createdAt,value
2023-03-03T00:03:04.579Z,11.88
2023-03-03T00:08:05.556Z,15.70
2023-03-03T00:13:16.326Z,9.80
2023-03-03T00:18:34.759Z,12.98
2023-03-03T00:23:41.777Z,13.02
2023-03-03T00:28:46.559Z,11.60
2023-03-03T00:33:56.647Z,12.55
2023-03-03T00:39:17.561Z,13.88
2023-03-03T00:44:40.552Z,10.38
2023-03-03T00:49:42.337Z,13.62
2023-03-03T00:54:43.352Z,13.55
2023-03-03T00:59:44.206Z,16.95
2023-03-03T01:04:50.258Z,14.07
2023-03-03T01:09:51.073Z,17.75
2023-03-03T01:14:54.049Z,13.95
2023-03-03T01:19:54.800Z,18.52
2023-03-03T01:24:56.756Z,14.50
2023-03-03T01:29:58.835Z,16.37
2023-03-03T01:34:59.722Z,18.42
2023-03-03T01:40:01.242Z,19.92
2023-03-03T01:45:22.390Z,15.93
2023-03-03T01:50:41.314Z,22.30
2023-03-03T01:55:44.433Z,17.80
2023-03-03T02:00:50.008Z,22.42
2023-03-03T02:05:56.965Z,21.87
2023-03-03T02:10:57.850Z,23.85
2023-03-03T02:16:00.164Z,19.05
2023-03-03T02:21:23.261Z,22.37
2023-03-03T02:26:26.676Z,22.42
2023-03-03T02:31:31.120Z,22.17
2023-03-03T02:36:34.946Z,24.80
2023-03-03T02:41:46.228Z,24.52
2023-03-03T02:46:49.784Z,28.73
2023-03-03T02:51:51.217Z,25.08
2023-03-03T02:56:52.067Z,29.20
2023-03-03T03:01:55.195Z,28.42
2023-03-03T03:06:56.584Z,25.90
2023-03-03T03:12:01.596Z,31.37
2023-03-03T03:17:03.982Z,30.17
2023-03-03T03:22:04.773Z,30.67
2023-03-03T03:27:08.037Z,41.30
2023-03-03T03:32:09.138Z,36.15
2023-03-03T03:37:10.072Z,34.92
2023-03-03T03:42:12.611Z,37.35
2023-03-03T03:47:13.643Z,35.03
2023-03-03T03:52:14.738Z,39.10
2023-03-03T03:57:15.833Z,37.53
2023-03-03T04:02:18.559Z,41.03
2023-03-03T04:07:19.814Z,42.92
2023-03-03T04:12:20.746Z,46.72
2023-03-03T04:17:24.139Z,45.80
2023-03-03T04:22:25.627Z,42.67
2023-03-03T04:27:26.528Z,52.20
2023-03-03T04:32:27.811Z,55.83
2023-03-03T04:37:29.049Z,53.92
2023-03-03T04:42:30.552Z,54.72
2023-03-03T04:47:31.973Z,48.63
2023-03-03T04:52:33.230Z,57.08
2023-03-03T04:57:34.309Z,52.35
2023-03-03T05:02:35.556Z,55.70
2023-03-03T05:07:36.632Z,52.50
2023-03-03T05:12:37.353Z,60.83
2023-03-03T05:17:38.143Z,57.58
2023-03-03T05:22:38.874Z,62.28
2023-03-03T05:27:39.835Z,61.45
2023-03-03T05:32:40.600Z,61.60
2023-03-03T05:37:46.329Z,60.30
2023-03-03T05:42:47.205Z,57.53
2023-03-03T05:47:48.113Z,61.03
2023-03-03T05:52:50.658Z,66.47
2023-03-03T05:57:51.491Z,60.20
2023-03-03T06:02:52.393Z,56.78
2023-03-03T06:07:53.333Z,58.70
2023-03-03T06:12:54.413Z,64.75
2023-03-03T06:17:55.223Z,60.65
2023-03-03T06:22:55.993Z,75.40
2023-03-03T06:27:57.257Z,65.22
2023-03-03T06:32:58.226Z,65.37
2023-03-03T06:37:59.121Z,69.25
2023-03-03T06:43:02.456Z,67.60
2023-03-03T06:53:13.307Z,63.45
2023-03-03T06:58:17.036Z,62.00
2023-03-03T07:03:22.343Z,68.28
2023-03-03T07:08:24.218Z,63.45
2023-03-03T07:13:29.115Z,60.85
2023-03-03T07:21:17.883Z,65.32
2023-03-03T07:26:29.907Z,59.60
2023-03-03T07:31:35.203Z,60.85
2023-03-03T07:36:37.012Z,59.58
2023-03-03T07:41:37.950Z,63.50
2023-03-03T07:46:44.105Z,59.03
2023-03-03T07:51:44.856Z,60.58
2023-03-03T07:56:46.658Z,61.30
2023-03-03T08:01:50.888Z,59.80
2023-03-03T08:06:54.727Z,56.55
2023-03-03T08:12:12.835Z,61.45
2023-03-03T08:17:36.162Z,60.53
2023-03-03T08:22:37.015Z,64.25
2023-03-03T08:27:37.782Z,61.92
2023-03-03T08:32:38.702Z,61.90
2023-03-03T08:37:39.597Z,64.95
2023-03-03T08:42:40.477Z,63.10
2023-03-03T08:47:42.470Z,65.53
2023-03-03T08:52:44.701Z,62.75
2023-03-03T08:57:45.530Z,60.53
2023-03-03T09:02:46.975Z,52.20
2023-03-03T09:07:50.562Z,63.30
2023-03-03T09:12:51.399Z,55.50
2023-03-03T09:17:52.627Z,54.20
2023-03-03T09:22:53.817Z,55.33
2023-03-03T09:27:54.818Z,59.15
2023-03-03T09:32:57.379Z,55.70
2023-03-03T09:37:58.142Z,46.43
2023-03-03T09:43:09.317Z,56.78
2023-03-03T09:49:18.821Z,56.55
2023-03-03T10:01:28.267Z,54.40
2023-03-03T10:06:53.948Z,58.83
2023-03-03T10:12:12.693Z,59.08
2023-03-03T10:19:55.145Z,53.50
2023-03-03T10:25:41.547Z,47.17
2023-03-03T10:32:40.478Z,48.22
2023-03-03T10:39:36.414Z,48.00
2023-03-03T10:45:10.789Z,53.35
2023-03-03T10:50:31.046Z,52.60
2023-03-03T10:57:44.366Z,53.92
2023-03-03T11:03:27.070Z,51.53
2023-03-03T11:08:40.842Z,59.95
2023-03-03T11:13:53.936Z,48.83
2023-03-03T11:19:58.929Z,50.63
2023-03-03T11:28:30.552Z,55.60
2023-03-03T11:34:00.907Z,52.08
2023-03-03T11:39:05.504Z,46.05
2023-03-03T11:44:28.429Z,46.25
2023-03-03T11:51:04.540Z,50.05
2023-03-03T11:56:49.251Z,44.72
2023-03-03T12:01:59.712Z,45.92
2023-03-03T12:07:19.458Z,51.33
2023-03-03T12:12:32.546Z,45.33
2023-03-03T12:18:14.646Z,42.85
2023-03-03T12:23:49.517Z,41.13
2023-03-03T12:29:02.198Z,40.60
2023-03-03T12:34:26.303Z,40.37
2023-03-03T12:42:47.956Z,39.90
2023-03-03T12:47:53.104Z,32.40
2023-03-03T12:53:10.959Z,38.63
2023-03-03T12:58:44.214Z,32.55
2023-03-03T13:05:40.106Z,33.45
2023-03-03T13:12:29.174Z,36.25
2023-03-03T13:20:43.921Z,37.70
2023-03-03T13:25:57.662Z,38.30
2023-03-03T13:31:07.928Z,37.45
2023-03-03T13:36:11.186Z,43.13
2023-03-03T13:41:31.441Z,37.95
2023-03-03T13:46:40.636Z,40.92
2023-03-03T13:51:59.775Z,36.60
2023-03-03T13:58:44.566Z,40.33
2023-03-03T14:05:35.481Z,44.05
2023-03-03T14:10:53.773Z,37.03
2023-03-03T14:16:10.777Z,44.97
2023-03-03T14:21:35.239Z,41.75
2023-03-03T14:26:50.656Z,46.00
2023-03-03T14:31:52.012Z,44.17
2023-03-03T14:37:00.110Z,43.13
2023-03-03T14:42:11.365Z,42.67
2023-03-03T14:47:26.903Z,44.28
2023-03-03T14:52:33.270Z,48.45
2023-03-03T14:57:47.906Z,48.53
2023-03-03T15:03:30.951Z,49.92
2023-03-03T15:08:38.309Z,48.00
2023-03-03T15:13:40.028Z,46.58
2023-03-03T15:24:05.569Z,50.60
2023-03-03T15:29:31.285Z,50.50
2023-03-03T15:36:21.721Z,50.20
2023-03-03T15:41:43.610Z,47.85
2023-03-03T15:47:27.929Z,51.05
2023-03-03T15:52:47.861Z,46.58
2023-03-03T15:58:30.005Z,46.35
2023-03-03T16:03:37.289Z,45.85
2023-03-03T16:10:15.504Z,45.22
2023-03-03T16:17:00.998Z,53.65
2023-03-03T16:23:50.521Z,61.35
2023-03-03T16:29:46.722Z,56.05
2023-03-03T16:35:15.710Z,54.72
2023-03-03T16:40:25.007Z,55.17
2023-03-03T16:45:32.931Z,54.08
2023-03-03T16:53:31.145Z,56.20
2023-03-03T16:58:57.361Z,58.67
2023-03-03T17:08:12.183Z,57.42
2023-03-03T17:14:54.953Z,55.38
2023-03-03T17:21:03.719Z,58.30
2023-03-03T17:31:50.044Z,58.90
2023-03-03T17:37:07.964Z,57.25
2023-03-03T17:42:25.147Z,62.45
2023-03-03T17:52:42.992Z,65.57
2023-03-03T17:59:22.161Z,62.10
2023-03-03T18:05:12.000Z,63.45
2023-03-03T18:10:47.947Z,65.15
2023-03-03T18:19:05.844Z,71.55
2023-03-03T18:24:35.943Z,73.40
2023-03-03T18:29:36.978Z,72.28
2023-03-03T18:34:40.066Z,71.18
2023-03-03T18:39:49.169Z,77.85
2023-03-03T18:44:49.910Z,84.07
2023-03-03T18:50:03.118Z,78.57
2023-03-03T18:55:25.228Z,80.07
2023-03-03T19:00:30.044Z,80.40
2023-03-03T19:05:46.876Z,86.28
2023-03-03T19:11:29.062Z,87.22
2023-03-03T19:16:30.311Z,99.28
2023-03-03T19:21:36.070Z,92.40
2023-03-03T19:26:57.999Z,97.18
2023-03-03T19:32:38.203Z,93.68
2023-03-03T19:38:18.619Z,110.35
2023-03-03T19:43:56.212Z,105.40
2023-03-03T19:49:36.641Z,100.68
2023-03-03T19:58:06.777Z,120.18
2023-03-03T20:03:41.479Z,99.70
2023-03-03T20:16:40.112Z,126.38
2023-03-03T20:23:22.545Z,152.45
2023-03-03T20:30:10.556Z,121.68
2023-03-03T20:35:30.906Z,143.23
2023-03-03T20:40:43.405Z,128.30
2023-03-03T20:46:03.477Z,142.27
2023-03-03T20:52:06.242Z,134.00
2023-03-03T20:57:22.543Z,136.20
2023-03-03T21:05:08.802Z,135.73
2023-03-03T21:10:23.179Z,140.62
2023-03-03T21:15:34.824Z,141.85
2023-03-03T21:20:36.018Z,136.50
2023-03-03T21:25:45.348Z,141.70
2023-03-03T21:37:42.102Z,150.23
2023-03-03T21:42:44.663Z,143.02
2023-03-03T21:47:46.406Z,136.73
2023-03-03T21:52:47.859Z,146.62
2023-03-03T21:57:48.773Z,136.37
2023-03-03T22:02:49.526Z,137.37
2023-03-03T22:07:50.267Z,140.75
2023-03-03T22:12:51.573Z,132.23
2023-03-03T22:17:52.421Z,128.20
2023-03-03T22:22:53.364Z,119.85
2023-03-03T22:27:54.326Z,125.68
2023-03-03T22:32:55.184Z,135.32
2023-03-03T22:37:58.981Z,151.70
2023-03-03T22:42:59.918Z,139.27
2023-03-03T22:48:00.987Z,133.20
2023-03-03T22:53:01.699Z,136.07
2023-03-03T22:58:09.329Z,118.55
2023-03-03T23:03:11.090Z,122.75
2023-03-03T23:08:14.258Z,127.00
2023-03-03T23:13:15.607Z,134.18
2023-03-03T23:18:16.577Z,127.00
2023-03-03T23:23:17.355Z,136.57
2023-03-03T23:28:18.502Z,125.53
2023-03-03T23:33:19.627Z,133.37
2023-03-03T23:38:20.531Z,127.35
2023-03-03T23:43:21.330Z,130.50
2023-03-03T23:48:22.248Z,127.43
2023-03-03T23:53:22.968Z,121.07
2023-03-03T23:58:23.779Z,127.07
